Kezdőlap
METAR-TAF:

METAR-TAF

Repülőterek :

Taskent, Üzbegisztán

földrajzi szélesség: 41-16N, földrajzi hosszúság: 069-16E, magasság: 489 m

Jelenlegi meteorológiai megfigyelések

A jelentés 26 perccel ezelõtt készült, 22:30 UTC
Északkeleti szél 6 kt
Hőmérséklet 2°C
Páratartalom 60%
Légköri nyomás 1025 hPa
Látótávolság: 4000 m
füst

METAR: UTTT 162230Z 04006KT 4000 FU NSC 02/M05 Q1025 R08R/CLRD70 NOSIG

Idő: 03:56 (22:56 UTC)

Előrejelzés

A jelentés 5 órával és 56 perccel ezelõtt készült, 17:00 UTC
Az előrejelzés 16-én 18 óra UTC és 17-én 18 óra UTC között érvényes
Kelet-északkeleti szél 10 kt
Látótávolság: 7000 m
16-én 18 óra UTC és 17-én 04 óra UTC között ideiglenes
Látótávolság: 3000 m
füst

TAF: UTTT 161700Z 1618/1718 07010KT 7000 NSC TEMPO 1618/1704 3000 FU

Meteorológiai megfigyelések és előrejelzések több, mint 4000 repülőtéren (METAR és TAF jelentéseket).

A térképen piros és sárga pontok jelzik az elérhető meteorológiai állomásokat.

Mozgassa az egeret a pont fölött, hogy megjelenjen az állomás neve.

Azután kattintson az időjárási megfigyelések és előrejelzések megtekintéséhez.

A térkép megváltoztatása: kattintson a fekete keresztel jelölt zöld gombra ráközelítéshez, a vonallal jelölt zöld gombra távolításhoz, vagy a zöld nyilakra a szomszédos térképek eléréséhez.


METAR-TAF: